Time;durP1;ratioP1;P1;durP2;ratioP2;P2;SDS_P1;SDS_P2;PMS_P1;PMS_P2;Temp;Humidity;BMP_temperature;BMP_pressure;BME280_temperature;BME280_humidity;BME280_pressure;Samples;Min_cycle;Max_cycle;Signal;HPM_P1;HPM_P2
2021/08/31 00:00:30;;;;;;;17.15;12.93;;;;;;;15.37;75.37;100865.56;5043843;28;20049;-80
2021/08/31 00:02:58;;;;;;;19.48;13.75;;;;;;;15.37;75.46;100865.56;5043590;28;20053;-80
2021/08/31 00:05:25;;;;;;;16.35;13.52;;;;;;;15.34;75.51;100866.25;5043512;28;20058;-78
2021/08/31 00:07:53;;;;;;;16.38;12.63;;;;;;;15.30;75.62;100865.28;5042484;28;20053;-80
2021/08/31 00:10:21;;;;;;;15.07;12.15;;;;;;;15.29;75.64;100872.88;5037041;28;20053;-80
2021/08/31 00:12:49;;;;;;;15.57;12.57;;;;;;;15.28;75.56;100879.63;5023678;28;20053;-80
2021/08/31 00:15:18;;;;;;;16.80;12.95;;;;;;;15.27;75.61;100875.19;5023697;28;20061;-79
2021/08/31 00:17:56;;;;;;;18.40;13.70;;;;;;;15.26;75.80;100873.53;5023559;28;20057;-80
2021/08/31 00:20:24;;;;;;;20.33;14.00;;;;;;;15.22;75.48;100878.16;5023664;28;20050;-80
2021/08/31 00:22:53;;;;;;;19.85;15.35;;;;;;;15.18;75.85;100880.84;5021818;28;20050;-80
2021/08/31 00:25:20;;;;;;;20.50;15.98;;;;;;;15.17;75.68;100881.19;5029538;28;20050;-80
2021/08/31 00:27:48;;;;;;;24.30;16.40;;;;;;;15.15;76.01;100889.09;5023627;28;20729;-80
2021/08/31 00:30:18;;;;;;;23.40;16.50;;;;;;;15.15;76.16;100887.13;5023735;28;20058;-80
2021/08/31 00:32:46;;;;;;;26.77;17.83;;;;;;;15.18;76.47;100894.88;5023008;28;20061;-80
2021/08/31 00:35:13;;;;;;;24.30;17.25;;;;;;;15.22;76.67;100892.22;5023047;28;20046;-80
2021/08/31 00:37:42;;;;;;;18.90;14.93;;;;;;;15.28;76.71;100885.25;5023370;28;20069;-80
2021/08/31 00:40:11;;;;;;;18.67;14.88;;;;;;;15.31;76.72;100895.81;5022021;28;20050;-78
2021/08/31 00:42:38;;;;;;;20.08;14.57;;;;;;;15.32;76.78;100883.41;5022901;28;20045;-80
2021/08/31 00:45:08;;;;;;;20.50;14.10;;;;;;;15.38;77.01;100886.88;5022972;28;20089;-80
2021/08/31 00:47:37;;;;;;;17.33;13.02;;;;;;;15.42;77.07;100887.84;5023350;28;20054;-80
2021/08/31 00:50:07;;;;;;;;;;;;;;;15.42;76.07;100885.84;5024540;28;20060;-80
2021/08/31 00:52:34;;;;;;;15.57;12.13;;;;;;;15.48;76.61;100889.31;5023208;28;19921;-80
2021/08/31 00:55:03;;;;;;;16.02;12.55;;;;;;;15.51;76.69;100893.41;5023235;28;20061;-80
2021/08/31 00:57:32;;;;;;;16.30;13.18;;;;;;;15.56;76.48;100885.63;5028470;28;20049;-80
2021/08/31 01:00:01;;;;;;;20.13;13.60;;;;;;;15.57;76.34;100892.88;5029864;28;20053;-80
2021/08/31 01:02:28;;;;;;;16.67;13.73;;;;;;;15.58;76.14;100888.09;5023393;28;20046;-80
2021/08/31 01:04:57;;;;;;;21.42;13.90;;;;;;;15.58;76.05;100888.09;5023157;28;20064;-78
2021/08/31 01:07:26;;;;;;;21.00;14.40;;;;;;;15.57;75.80;100883.66;5023695;28;20514;-80
2021/08/31 01:09:54;;;;;;;17.70;14.18;;;;;;;15.53;76.24;100888.28;5022741;28;20073;-80
2021/08/31 01:12:22;;;;;;;16.73;13.65;;;;;;;15.54;76.54;100881.50;5022562;28;20479;-80
2021/08/31 01:14:51;;;;;;;18.27;13.98;;;;;;;15.60;76.37;100891.38;5023126;28;20061;-79
2021/08/31 01:17:19;;;;;;;17.77;14.48;;;;;;;15.58;76.45;100896.50;5022698;28;20054;-80
2021/08/31 01:19:46;;;;;;;19.17;14.23;;;;;;;15.62;76.14;100901.13;5022389;28;20502;-80
2021/08/31 01:22:15;;;;;;;16.92;13.43;;;;;;;15.62;76.15;100897.47;5023201;28;20054;-80
2021/08/31 01:24:46;;;;;;;19.00;14.45;;;;;;;15.65;76.34;100899.63;5022328;28;20054;-80
2021/08/31 01:27:15;;;;;;;19.00;12.93;;;;;;;15.66;76.40;100895.63;5022556;28;20054;-80
2021/08/31 01:29:43;;;;;;;15.75;13.57;;;;;;;15.68;76.48;100898.94;5022581;28;20053;-80
2021/08/31 01:32:11;;;;;;;15.77;13.13;;;;;;;15.69;76.55;100896.97;5022185;28;20056;-80
2021/08/31 01:34:39;;;;;;;17.27;13.63;;;;;;;15.77;76.11;100899.75;5021687;28;20054;-80
2021/08/31 01:37:10;;;;;;;14.68;12.50;;;;;;;15.85;76.15;100909.28;5021850;28;20062;-80
2021/08/31 01:39:38;;;;;;;17.48;11.80;;;;;;;15.87;75.90;100906.13;5021422;28;20054;-80
2021/08/31 01:42:07;;;;;;;15.23;11.68;;;;;;;15.90;75.58;100903.47;5020749;28;20050;-78
2021/08/31 01:44:36;;;;;;;14.45;11.68;;;;;;;15.93;75.23;100901.97;5021799;28;20380;-80
2021/08/31 01:47:04;;;;;;;14.25;11.10;;;;;;;15.93;75.15;100901.97;5022148;28;20058;-80
2021/08/31 01:49:32;;;;;;;13.82;11.73;;;;;;;15.92;74.96;100903.16;5021873;28;20050;-80
2021/08/31 01:51:59;;;;;;;13.38;11.38;;;;;;;15.98;74.70;100913.84;5021401;28;20050;-80
2021/08/31 01:54:28;;;;;;;12.05;10.60;;;;;;;15.99;74.50;100914.66;5021735;28;20050;-80
2021/08/31 01:56:55;;;;;;;15.13;11.75;;;;;;;15.97;75.12;100911.38;5021760;28;20053;-80
2021/08/31 01:59:22;;;;;;;13.77;11.02;;;;;;;15.97;75.03;100911.38;5024983;28;20057;-80
2021/08/31 02:01:51;;;;;;;15.15;12.00;;;;;;;16.04;74.78;100903.22;5025127;28;20058;-79
2021/08/31 02:04:19;;;;;;;14.23;12.27;;;;;;;16.06;74.95;100903.69;5021665;28;20064;-79
2021/08/31 02:06:46;;;;;;;15.15;12.50;;;;;;;16.09;74.94;100894.59;5004206;28;20053;-80
2021/08/31 02:09:13;;;;;;;15.88;13.05;;;;;;;16.12;75.04;100891.09;5021863;28;20064;-80
2021/08/31 02:11:42;;;;;;;16.08;12.65;;;;;;;16.18;74.74;100895.34;5022442;28;20057;-80
2021/08/31 02:14:09;;;;;;;16.42;12.55;;;;;;;16.16;74.49;100889.25;5022061;28;20057;-80
2021/08/31 02:16:39;;;;;;;17.05;13.07;;;;;;;16.10;74.87;100890.59;5021875;28;20053;-80
2021/08/31 02:19:08;;;;;;;;;;;;;;;16.07;74.95;100894.09;5022650;28;20050;-80
2021/08/31 02:21:35;;;;;;;17.90;13.77;;;;;;;16.09;74.82;100900.22;5022487;28;19928;-80
2021/08/31 02:24:03;;;;;;;21.30;14.35;;;;;;;16.10;75.01;100901.84;5021168;28;20053;-80
2021/08/31 02:26:33;;;;;;;20.23;15.00;;;;;;;16.05;75.16;100895.63;5021637;28;20058;-80
2021/08/31 02:29:03;;;;;;;25.60;17.83;;;;;;;16.06;75.00;100903.69;5020391;28;20050;-79
2021/08/31 02:31:31;;;;;;;22.50;16.40;;;;;;;16.05;75.48;100913.31;5022134;28;20041;-80
2021/08/31 02:33:58;;;;;;;20.80;15.75;;;;;;;16.05;75.66;100904.06;5020729;28;20054;-79
2021/08/31 02:36:27;;;;;;;20.77;16.10;;;;;;;16.09;75.94;100905.03;5019375;28;20064;-80
2021/08/31 02:38:59;;;;;;;22.53;16.87;;;;;;;16.12;76.07;100907.13;5021153;28;20054;-78
2021/08/31 02:41:28;;;;;;;18.98;15.45;;;;;;;16.16;75.75;100903.28;5020769;28;20471;-80
2021/08/31 02:43:56;;;;;;;;;;;;;;;16.18;75.56;100912.19;5021924;28;20054;-80
2021/08/31 02:46:23;;;;;;;17.08;15.05;;;;;;;16.27;75.37;100914.94;5022389;28;19928;-80
2021/08/31 02:48:50;;;;;;;17.70;15.57;;;;;;;16.28;75.42;100915.78;5021824;28;20054;-80
2021/08/31 02:51:20;;;;;;;18.45;15.20;;;;;;;16.34;75.57;100915.25;5022477;28;20058;-80
2021/08/31 02:53:49;;;;;;;17.15;15.00;;;;;;;16.43;75.43;100912.34;5020873;28;20058;-80
2021/08/31 02:56:16;;;;;;;20.52;16.00;;;;;;;16.49;75.19;100919.41;5019061;28;20058;-80
2021/08/31 02:58:43;;;;;;;23.00;17.50;;;;;;;16.54;75.30;100924.81;5018830;28;20065;-80
2021/08/31 03:01:30;;;;;;;19.80;17.67;;;;;;;16.58;75.44;100917.34;5018995;28;20386;-80
2021/08/31 03:03:57;;;;;;;24.50;18.38;;;;;;;16.62;75.42;100926.72;5018465;28;20054;-80
2021/08/31 03:06:25;;;;;;;22.45;18.02;;;;;;;16.68;75.36;100929.34;5018595;28;20053;-80
2021/08/31 03:08:54;;;;;;;27.02;18.80;;;;;;;16.72;75.41;100919.88;5018545;28;20061;-80
2021/08/31 03:11:21;;;;;;;24.38;19.88;;;;;;;16.80;75.16;100933.06;5022656;28;20402;-80
2021/08/31 03:13:49;;;;;;;21.58;18.67;;;;;;;16.83;75.04;100929.56;5024935;28;20057;-79
2021/08/31 03:16:17;;;;;;;21.95;19.05;;;;;;;16.87;74.73;100938.13;5022188;28;20050;-80
2021/08/31 03:18:45;;;;;;;24.73;20.25;;;;;;;16.94;74.58;100937.56;5022863;28;20052;-80
2021/08/31 03:21:12;;;;;;;26.35;21.75;;;;;;;16.95;74.57;100936.41;5022630;28;20514;-79
2021/08/31 03:23:40;;;;;;;25.35;20.45;;;;;;;16.98;74.80;100936.53;5026302;28;20049;-80
2021/08/31 03:26:08;;;;;;;26.77;20.25;;;;;;;17.03;74.49;100936.31;5043132;28;20050;-80
2021/08/31 03:28:36;;;;;;;29.23;23.57;;;;;;;17.03;74.42;100944.75;5042304;28;20062;-79
2021/08/31 03:31:03;;;;;;;32.75;24.70;;;;;;;17.09;74.43;100936.09;5042180;28;20072;-80
2021/08/31 03:33:30;;;;;;;28.63;22.60;;;;;;;17.09;74.62;100944.53;5041876;28;20057;-80
2021/08/31 03:35:58;;;;;;;30.75;24.63;;;;;;;17.10;74.63;100949.00;5042537;28;20049;-79
2021/08/31 03:38:25;;;;;;;29.60;24.10;;;;;;;17.15;74.58;100948.78;5037514;28;20054;-80
2021/08/31 03:40:52;;;;;;;31.45;24.77;;;;;;;17.20;74.60;100960.63;5021433;28;20054;-80
2021/08/31 03:43:21;;;;;;;28.63;24.13;;;;;;;17.22;74.45;100963.94;5021172;28;20056;-80
2021/08/31 03:45:49;;;;;;;30.35;24.73;;;;;;;17.19;74.81;100956.16;5021388;28;20065;-80
2021/08/31 03:48:16;;;;;;;30.65;23.38;;;;;;;17.25;74.44;100954.78;5022052;28;20048;-80
2021/08/31 03:50:50;;;;;;;28.90;23.05;;;;;;;17.30;74.30;100956.53;5021433;28;20053;-79
2021/08/31 03:53:17;;;;;;;29.95;23.40;;;;;;;17.31;74.16;100954.56;5021909;28;20357;-79
2021/08/31 03:55:44;;;;;;;27.67;23.70;;;;;;;17.35;73.87;100958.34;5022405;28;20060;-79
2021/08/31 03:58:12;;;;;;;28.45;23.88;;;;;;;17.39;73.38;100962.91;5023737;28;20046;-80
2021/08/31 04:00:43;;;;;;;28.42;23.48;;;;;;;17.41;73.71;100957.75;5023806;28;20065;-80
2021/08/31 04:03:13;;;;;;;29.67;24.92;;;;;;;17.42;73.34;100965.03;5022696;28;20409;-79
2021/08/31 04:05:41;;;;;;;31.83;24.90;;;;;;;17.42;73.58;100965.03;5021968;28;20053;-81
2021/08/31 04:08:08;;;;;;;31.30;25.23;;;;;;;17.43;73.48;100968.69;5021274;28;20054;-81
2021/08/31 04:10:38;;;;;;;33.72;26.35;;;;;;;17.43;73.44;100966.69;5020394;28;20056;-79
2021/08/31 04:13:06;;;;;;;32.65;25.80;;;;;;;17.44;73.28;100968.31;5021556;28;20050;-79
2021/08/31 04:15:34;;;;;;;31.83;26.05;;;;;;;17.41;73.43;100962.56;5021531;28;20053;-79
2021/08/31 04:18:03;;;;;;;34.20;26.02;;;;;;;17.41;73.49;100968.22;5022616;28;20490;-79
2021/08/31 04:20:30;;;;;;;33.45;27.55;;;;;;;17.37;73.48;100962.44;5039848;28;20057;-78
2021/08/31 04:22:58;;;;;;;35.17;27.63;;;;;;;17.37;73.50;100965.25;5033201;28;20056;-79
2021/08/31 04:25:26;;;;;;;35.85;27.52;;;;;;;17.38;73.66;100969.72;5039774;28;20049;-78
2021/08/31 04:27:53;;;;;;;35.63;28.48;;;;;;;17.31;73.81;100969.47;5042434;28;20060;-79
2021/08/31 04:30:20;;;;;;;36.50;28.38;;;;;;;17.27;73.79;100967.69;5041334;28;20048;-77
2021/08/31 04:32:47;;;;;;;35.92;29.63;;;;;;;17.27;73.51;100965.69;5042193;28;20050;-79
2021/08/31 04:35:16;;;;;;;39.92;29.70;;;;;;;17.24;73.61;100974.84;5042219;28;20049;-79
2021/08/31 04:37:44;;;;;;;41.00;29.80;;;;;;;17.21;73.62;100967.09;5041175;28;20053;-79
2021/08/31 04:40:12;;;;;;;36.33;27.48;;;;;;;17.19;73.92;100966.63;5023840;28;20061;-79
2021/08/31 04:42:39;;;;;;;36.40;27.88;;;;;;;17.18;74.08;100968.63;5022406;28;20054;-79
2021/08/31 04:45:08;;;;;;;35.78;26.80;;;;;;;17.20;73.99;100973.91;5021147;28;20359;-79
2021/08/31 04:47:35;;;;;;;35.20;26.38;;;;;;;17.16;73.88;100973.78;5030738;28;20442;-79
2021/08/31 04:50:02;;;;;;;38.22;28.20;;;;;;;17.15;73.89;100968.47;5041491;28;20056;-79
2021/08/31 04:52:31;;;;;;;37.30;28.52;;;;;;;17.12;74.31;100972.81;5041507;28;20068;-79
2021/08/31 04:54:59;;;;;;;43.22;29.83;;;;;;;17.04;74.52;100974.53;5041142;28;20053;-78
2021/08/31 04:57:26;;;;;;;37.08;27.98;;;;;;;17.03;74.67;100969.28;5041213;28;20502;-79
2021/08/31 04:59:54;;;;;;;39.22;29.00;;;;;;;17.04;74.44;100966.09;5024149;28;20061;-79
2021/08/31 05:02:21;;;;;;;33.45;26.63;;;;;;;17.07;74.89;100973.00;5020997;28;20062;-79
2021/08/31 05:04:48;;;;;;;35.75;27.27;;;;;;;17.11;74.65;100979.59;5021372;28;20046;-78
2021/08/31 05:07:16;;;;;;;33.72;26.88;;;;;;;17.19;74.47;100980.69;5018944;28;20057;-78
2021/08/31 05:09:45;;;;;;;33.33;26.20;;;;;;;17.24;74.58;100981.31;5020807;28;20050;-79
2021/08/31 05:12:13;;;;;;;34.60;27.55;;;;;;;17.32;74.21;100982.34;5033292;28;20414;-80
2021/08/31 05:14:40;;;;;;;35.97;27.55;;;;;;;17.38;73.80;100978.16;5041181;28;20058;-78
2021/08/31 05:17:07;;;;;;;38.40;30.20;;;;;;;17.43;73.37;100986.41;5041937;28;20056;-78
2021/08/31 05:19:35;;;;;;;43.05;32.08;;;;;;;17.49;73.08;100994.59;5042394;28;20363;-78
2021/08/31 05:22:05;;;;;;;47.67;33.08;;;;;;;17.48;73.01;100996.59;5042029;28;20386;-79
2021/08/31 05:24:34;;;;;;;46.83;33.22;;;;;;;17.45;73.29;100997.31;5037000;28;20045;-77
2021/08/31 05:27:03;;;;;;;47.03;33.70;;;;;;;17.49;73.29;101003.06;5040218;28;20046;-79
2021/08/31 05:29:30;;;;;;;52.53;33.33;;;;;;;17.51;72.95;101000.72;5040357;28;20060;-78
2021/08/31 05:31:57;;;;;;;51.28;32.58;;;;;;;17.50;73.00;101001.91;5039801;28;20509;-79
2021/08/31 05:34:25;;;;;;;51.45;33.00;;;;;;;17.54;72.93;101009.28;5038129;28;20053;-79
2021/08/31 05:36:52;;;;;;;51.88;32.08;;;;;;;17.56;72.65;101015.41;5027699;28;20056;-79
2021/08/31 05:39:19;;;;;;;54.13;32.92;;;;;;;17.60;72.51;101015.53;5019856;28;20579;-80
2021/08/31 05:41:48;;;;;;;54.75;31.40;;;;;;;17.65;72.47;101006.84;5020349;28;20054;-80
2021/08/31 05:44:17;;;;;;;54.53;32.28;;;;;;;17.73;72.20;101010.75;5019685;28;20396;-80
2021/08/31 05:46:44;;;;;;;55.80;32.40;;;;;;;17.79;71.78;101018.63;5019736;28;20057;-80
2021/08/31 05:49:11;;;;;;;53.70;32.13;;;;;;;17.83;71.46;101019.59;5019653;28;20461;-80
2021/08/31 05:51:39;;;;;;;53.25;31.95;;;;;;;17.85;71.46;101022.88;5020067;28;20479;-81
2021/08/31 05:54:06;;;;;;;60.45;33.65;;;;;;;17.48;72.89;101029.59;5036228;28;20060;-81
2021/08/31 05:56:33;;;;;;;62.95;34.08;;;;;;;17.60;72.29;101033.25;5040040;28;20049;-80
2021/08/31 05:59:00;;;;;;;62.58;35.15;;;;;;;17.78;71.72;101033.88;5039679;28;20609;-81
2021/08/31 06:01:29;;;;;;;65.07;37.50;;;;;;;17.94;70.85;101033.22;5039128;28;20471;-81
2021/08/31 06:03:57;;;;;;;63.55;35.58;;;;;;;17.89;71.12;101030.63;5035985;28;20396;-81
2021/08/31 06:06:24;;;;;;;66.18;37.20;;;;;;;17.98;70.21;101037.00;5019481;28;20064;-80
2021/08/31 06:08:52;;;;;;;68.57;39.90;;;;;;;17.68;71.55;101039.13;5035710;28;20064;-79
2021/08/31 06:11:21;;;;;;;63.22;38.75;;;;;;;17.91;70.94;101036.72;5034036;28;20053;-78
2021/08/31 06:13:48;;;;;;;;;;;;;;;18.03;70.24;101034.75;5024225;28;20062;-78
2021/08/31 06:16:15;;;;;;;67.90;38.92;;;;;;;18.12;69.84;101040.28;5030805;28;19921;-78
2021/08/31 06:18:44;;;;;;;68.43;38.97;;;;;;;18.17;69.73;101042.88;5037557;28;20046;-76
2021/08/31 06:21:12;;;;;;;75.27;40.50;;;;;;;18.19;69.80;101048.16;5036977;28;20053;-78
2021/08/31 06:23:39;;;;;;;65.07;39.28;;;;;;;18.19;70.06;101056.63;5030709;28;20060;-78
2021/08/31 06:26:06;;;;;;;69.07;40.13;;;;;;;18.23;70.02;101060.38;5019862;28;20046;-78
2021/08/31 06:28:34;;;;;;;61.30;35.67;;;;;;;18.19;69.91;101065.91;5017072;28;20053;-78
2021/08/31 06:31:01;;;;;;;59.42;34.97;;;;;;;18.22;69.55;101053.91;5020357;28;20049;-78
2021/08/31 06:33:28;;;;;;;60.40;36.03;;;;;;;18.22;69.95;101065.19;5016980;28;20054;-78
2021/08/31 06:35:57;;;;;;;50.90;30.42;;;;;;;18.21;69.89;101063.53;5016730;28;20050;-78
2021/08/31 06:38:24;;;;;;;41.97;28.50;;;;;;;18.25;69.85;101063.69;5017513;28;20053;-78
2021/08/31 06:40:52;;;;;;;41.85;28.20;;;;;;;18.28;69.80;101079.06;5021773;28;20064;-77
2021/08/31 06:43:19;;;;;;;47.10;27.85;;;;;;;18.22;69.78;101065.19;5019555;28;20061;-78
2021/08/31 06:45:46;;;;;;;48.92;29.67;;;;;;;18.22;69.86;101082.09;5018862;28;20061;-79
2021/08/31 06:48:14;;;;;;;41.17;27.20;;;;;;;18.17;70.27;101076.69;5019799;28;20053;-79
2021/08/31 06:50:42;;;;;;;37.78;26.40;;;;;;;18.13;70.44;101077.75;5019476;28;20054;-78
2021/08/31 06:53:11;;;;;;;40.15;26.88;;;;;;;18.18;70.40;101080.34;5019267;28;20073;-79
2021/08/31 06:55:41;;;;;;;37.28;24.98;;;;;;;18.24;70.08;101074.09;5019215;28;20057;-78
2021/08/31 06:58:08;;;;;;;36.92;25.23;;;;;;;18.28;70.00;101079.06;5017337;28;20050;-78
2021/08/31 07:00:39;;;;;;;40.20;27.30;;;;;;;18.30;69.91;101079.53;5010694;28;20471;-79
2021/08/31 07:03:06;;;;;;;37.75;26.08;;;;;;;18.25;69.71;101072.94;5006154;28;20054;-79
2021/08/31 07:05:34;;;;;;;37.78;26.20;;;;;;;18.24;69.51;101078.94;5008257;28;20426;-80
2021/08/31 07:08:01;;;;;;;39.40;26.92;;;;;;;18.22;69.67;101086.91;5009664;28;20049;-80
2021/08/31 07:10:30;;;;;;;43.92;27.98;;;;;;;18.18;69.68;101083.97;5003763;28;20065;-80
2021/08/31 07:12:57;;;;;;;42.45;26.65;;;;;;;18.14;69.46;101096.31;5006896;28;20058;-79
2021/08/31 07:15:25;;;;;;;42.75;26.40;;;;;;;18.10;69.74;101098.19;5008436;28;20057;-80
2021/08/31 07:17:53;;;;;;;41.30;26.63;;;;;;;18.08;69.85;101103.34;5000107;28;20055;-79
2021/08/31 07:20:20;;;;;;;41.63;25.95;;;;;;;18.07;69.74;101107.34;5004650;28;20054;-80
2021/08/31 07:22:47;;;;;;;36.72;24.70;;;;;;;18.02;69.92;101103.59;5001722;28;20479;-78
2021/08/31 07:25:15;;;;;;;33.92;22.85;;;;;;;18.01;70.19;101104.75;5013944;28;20054;-80
2021/08/31 07:27:44;;;;;;;36.95;23.45;;;;;;;18.04;70.89;101106.88;5011939;28;20057;-81
2021/08/31 07:30:12;;;;;;;33.20;22.90;;;;;;;18.12;71.24;101107.13;5012592;28;20065;-80
2021/08/31 07:32:42;;;;;;;35.75;23.95;;;;;;;18.12;71.04;101104.28;5010117;28;20434;-78
2021/08/31 07:35:12;;;;;;;;;;;;;;;18.08;70.72;101104.19;5013332;28;20057;-80
2021/08/31 07:37:39;;;;;;;40.33;24.17;;;;;;;18.07;71.16;101108.16;5010446;28;19926;-80
2021/08/31 07:40:08;;;;;;;33.53;23.15;;;;;;;18.03;71.22;101110.03;5013957;28;20050;-79
2021/08/31 07:42:35;;;;;;;35.97;22.05;;;;;;;17.90;71.62;101114.03;4999512;28;20480;-77
2021/08/31 07:45:09;;;;;;;32.75;22.38;;;;;;;17.94;71.37;101114.97;5011679;28;20500;-79
2021/08/31 07:47:37;;;;;;;31.15;20.65;;;;;;;17.96;71.44;101119.06;5002156;28;20077;-78
2021/08/31 07:50:05;;;;;;;33.83;22.35;;;;;;;17.99;71.76;101123.19;4999341;28;20057;-80
2021/08/31 07:52:34;;;;;;;36.88;22.77;;;;;;;18.00;71.58;101125.66;5002336;28;20053;-78
2021/08/31 07:55:02;;;;;;;39.83;23.40;;;;;;;18.01;71.67;101126.47;5012970;28;20050;-79
2021/08/31 07:57:29;;;;;;;43.35;24.05;;;;;;;17.97;72.11;101136.81;5003397;28;20053;-79
2021/08/31 07:59:57;;;;;;;36.72;23.08;;;;;;;17.94;72.44;101137.50;5007493;28;20114;-80
2021/08/31 08:02:25;;;;;;;39.35;23.30;;;;;;;17.97;72.49;101134.81;5018792;28;20064;-79
2021/08/31 08:04:59;;;;;;;36.13;22.57;;;;;;;18.04;72.45;101131.44;5009635;28;20057;-78
2021/08/31 08:07:26;;;;;;;37.78;22.13;;;;;;;18.08;72.93;101131.53;5016442;28;20058;-79
2021/08/31 08:09:54;;;;;;;32.17;20.58;;;;;;;18.10;72.68;101127.22;5014964;28;20045;-79
2021/08/31 08:12:22;;;;;;;30.30;19.63;;;;;;;18.09;72.27;101134.03;5005285;28;20058;-79
2021/08/31 08:14:50;;;;;;;33.15;20.95;;;;;;;18.11;72.78;101128.03;5019201;28;20054;-79
2021/08/31 08:17:18;;;;;;;33.25;20.42;;;;;;;18.19;71.76;101132.75;5014635;28;20065;-77
2021/08/31 08:19:48;;;;;;;30.38;19.77;;;;;;;18.21;72.03;101134.03;5004957;28;20066;-78
2021/08/31 08:22:17;;;;;;;28.23;19.00;;;;;;;18.24;72.08;101129.69;5021829;28;20050;-79
2021/08/31 08:24:47;;;;;;;27.17;18.63;;;;;;;18.21;72.30;101139.69;5019593;28;20053;-79
2021/08/31 08:27:14;;;;;;;28.88;19.63;;;;;;;18.25;71.69;101137.81;5003482;28;20054;-78
2021/08/31 08:29:42;;;;;;;25.08;17.55;;;;;;;17.92;71.70;101139.84;5011742;28;20049;-80
2021/08/31 08:32:11;;;;;;;23.98;17.13;;;;;;;18.28;70.74;101146.75;5018961;28;20053;-79
2021/08/31 08:34:39;;;;;;;22.63;16.35;;;;;;;18.47;69.84;101149.81;5010615;28;20053;-78
2021/08/31 08:37:08;;;;;;;21.67;15.40;;;;;;;18.61;69.45;101152.28;5002839;28;20054;-80
2021/08/31 08:39:36;;;;;;;20.45;14.77;;;;;;;18.77;68.76;101149.56;5024701;28;20075;-79
2021/08/31 08:42:06;;;;;;;18.52;15.25;;;;;;;18.91;68.34;101147.25;5011354;28;20057;-80
2021/08/31 08:44:34;;;;;;;21.20;14.95;;;;;;;18.88;68.16;101142.31;5017067;28;20061;-80
2021/08/31 08:47:01;;;;;;;19.02;14.90;;;;;;;18.81;68.71;101137.25;5008372;28;20054;-80
2021/08/31 08:49:29;;;;;;;20.35;15.45;;;;;;;19.07;68.23;101138.88;5001033;28;20424;-80
2021/08/31 08:51:58;;;;;;;18.67;14.68;;;;;;;19.30;66.89;101146.78;5018949;28;20065;-81
2021/08/31 08:54:29;;;;;;;17.02;14.00;;;;;;;19.43;65.94;101143.59;5011096;28;20054;-82
2021/08/31 08:56:57;;;;;;;16.05;13.23;;;;;;;19.61;65.84;101143.28;5021229;28;20058;-82
2021/08/31 08:59:25;;;;;;;16.88;13.32;;;;;;;19.88;64.58;101141.66;5007471;28;20050;-81
2021/08/31 09:01:55;;;;;;;15.70;12.52;;;;;;;20.22;63.80;101139.31;5008482;28;20395;-80
2021/08/31 09:04:43;;;;;;;16.40;13.45;;;;;;;20.66;61.46;101142.91;5017361;28;20058;-80
2021/08/31 09:07:22;;;;;;;13.80;11.90;;;;;;;21.03;60.23;101136.06;5018688;28;20050;-80
2021/08/31 09:09:52;;;;;;;14.38;11.40;;;;;;;21.56;58.92;101139.25;5010793;28;20061;-80
2021/08/31 09:12:34;;;;;;;12.88;11.18;;;;;;;22.16;57.08;101130.31;5010155;28;20065;-80
2021/08/31 09:15:23;;;;;;;13.88;10.38;;;;;;;22.91;54.89;101130.75;5016307;28;20050;-79
2021/08/31 09:18:11;;;;;;;11.77;10.50;;;;;;;22.85;54.83;101132.28;4998854;28;20423;-80
2021/08/31 09:20:44;;;;;;;13.10;10.75;;;;;;;23.07;54.51;101137.09;5010940;28;20399;-81
2021/08/31 09:23:17;;;;;;;12.32;10.35;;;;;;;23.01;53.78;101130.09;5009322;28;20058;-82
2021/08/31 09:25:47;;;;;;;12.43;10.25;;;;;;;22.84;54.27;101128.59;5016853;28;20054;-81
2021/08/31 09:28:29;;;;;;;14.60;10.15;;;;;;;22.75;54.42;101124.41;5008871;28;20058;-80
2021/08/31 09:30:59;;;;;;;11.95;10.75;;;;;;;22.87;54.07;101136.38;5013489;28;20061;-81
2021/08/31 09:33:29;;;;;;;12.73;10.25;;;;;;;23.44;53.36;101127.84;5003938;28;20057;-78
2021/08/31 09:36:03;;;;;;;10.40;8.95;;;;;;;25.63;47.21;101115.41;5013528;28;20050;-79
2021/08/31 09:38:40;;;;;;;12.50;9.68;;;;;;;25.69;45.73;101119.50;5018157;28;20068;-79
2021/08/31 09:41:09;;;;;;;11.90;9.65;;;;;;;25.68;45.47;101117.91;5009524;28;20050;-79
2021/08/31 09:43:47;;;;;;;11.25;8.80;;;;;;;25.56;45.38;101117.44;5006289;28;20480;-79
2021/08/31 09:46:15;;;;;;;11.82;10.32;;;;;;;25.27;45.98;101120.97;5010771;28;20046;-80
2021/08/31 09:48:42;;;;;;;12.95;8.93;;;;;;;24.90;46.63;101127.69;5012719;28;20471;-81
2021/08/31 09:51:13;;;;;;;10.93;8.90;;;;;;;24.94;47.09;101121.97;5009850;28;20086;-80
2021/08/31 09:53:41;;;;;;;11.88;9.40;;;;;;;24.78;46.52;101124.31;5012609;28;20054;-81
2021/08/31 09:56:11;;;;;;;11.65;8.95;;;;;;;24.72;46.79;101115.34;5014737;28;20057;-81
2021/08/31 09:58:40;;;;;;;13.32;9.95;;;;;;;24.55;46.80;101118.84;5008653;28;20054;-82
2021/08/31 10:01:08;;;;;;;10.15;8.43;;;;;;;24.60;47.22;101122.16;5018242;28;20482;-82
2021/08/31 10:03:36;;;;;;;9.55;8.07;;;;;;;26.47;43.84;101120.06;5005007;28;20055;-81
2021/08/31 10:06:04;;;;;;;11.27;9.13;;;;;;;29.40;37.44;101113.88;5007456;28;20495;-82
2021/08/31 10:08:33;;;;;;;9.15;8.23;;;;;;;29.39;37.03;101106.47;5005849;28;20407;-81
2021/08/31 10:11:02;;;;;;;9.50;8.18;;;;;;;28.77;37.89;101117.00;5004065;28;20054;-80
2021/08/31 10:13:36;;;;;;;;;;;;;;;29.08;36.58;101119.94;5003951;28;20562;-79
2021/08/31 10:16:04;;;;;;;10.23;8.85;;;;;;;28.47;36.95;101129.91;5011917;28;19921;-82
2021/08/31 10:18:31;;;;;;;11.17;9.40;;;;;;;27.92;37.79;101120.09;5003712;28;20060;-81
2021/08/31 10:21:02;;;;;;;10.80;8.80;;;;;;;27.83;38.40;101134.03;5005946;28;20466;-81
2021/08/31 10:23:32;;;;;;;10.95;9.55;;;;;;;29.42;35.39;101122.84;5007625;28;20064;-80
2021/08/31 10:26:30;;;;;;;10.75;8.75;;;;;;;32.34;31.55;101128.66;5003025;28;20073;-80
2021/08/31 10:29:28;;;;;;;9.00;8.07;;;;;;;34.30;28.67;101125.56;5010762;28;20065;-81
2021/08/31 10:31:57;;;;;;;10.60;7.38;;;;;;;34.97;27.30;101125.31;5004054;28;20534;-82
2021/08/31 10:34:46;;;;;;;10.27;7.20;;;;;;;34.96;26.12;101117.91;5001474;28;20057;-78
2021/08/31 10:37:15;;;;;;;8.88;7.53;;;;;;;33.70;27.39;101124.13;4996748;28;20050;-81
2021/08/31 10:39:45;;;;;;;10.02;7.15;;;;;;;32.78;28.60;101127.53;5007108;28;20411;-80
2021/08/31 10:42:33;;;;;;;7.57;6.78;;;;;;;32.36;29.53;101129.00;5006096;28;20700;-80
2021/08/31 10:45:05;;;;;;;8.82;7.40;;;;;;;33.20;28.46;101127.66;5013700;28;20053;-79
2021/08/31 10:47:33;;;;;;;10.18;7.90;;;;;;;33.69;27.43;101124.59;5001633;28;20050;-79
2021/08/31 10:50:15;;;;;;;;;;;;;;;35.35;26.05;101124.34;5005236;28;20072;-80
2021/08/31 10:52:45;;;;;;;8.50;7.20;;;;;;;36.15;24.42;101119.19;5006128;28;19936;-80
2021/08/31 10:55:32;;;;;;;8.52;7.55;;;;;;;34.79;25.74;101116.44;5004679;28;20058;-80
2021/08/31 10:58:01;;;;;;;8.93;7.63;;;;;;;34.22;26.54;101122.09;5009869;28;20053;-80
2021/08/31 11:00:50;;;;;;;8.73;7.43;;;;;;;34.39;26.44;101124.84;5003778;28;20070;-80
2021/08/31 11:03:40;;;;;;;9.30;8.13;;;;;;;35.08;25.24;101124.13;5024040;28;20514;-79
2021/08/31 11:06:35;;;;;;;9.35;8.35;;;;;;;37.18;22.87;101125.53;5012854;28;20050;-79
2021/08/31 11:09:25;;;;;;;8.60;7.72;;;;;;;38.38;21.90;101121.47;5012621;28;20060;-78
2021/08/31 11:12:08;;;;;;;8.80;8.00;;;;;;;39.84;19.43;101106.19;5004398;28;20061;-79
2021/08/31 11:14:51;;;;;;;9.13;8.23;;;;;;;40.31;19.64;101109.34;5000121;28;20479;-79
2021/08/31 11:17:36;;;;;;;8.25;7.45;;;;;;;40.16;18.54;101103.50;5007544;28;20061;-78
2021/08/31 11:20:17;;;;;;;9.40;7.90;;;;;;;41.01;17.99;101104.69;5013210;28;20054;-79
2021/08/31 11:22:45;;;;;;;8.98;7.55;;;;;;;41.80;18.10;101100.47;5000332;28;20376;-80